createdAt,value
2022-11-03T00:01:45.445Z,12.98
2022-11-03T00:04:48.059Z,12.91
2022-11-03T00:07:50.338Z,12.85
2022-11-03T00:10:52.854Z,12.82
2022-11-03T00:13:55.180Z,12.77
2022-11-03T00:16:57.741Z,12.73
2022-11-03T00:20:00.903Z,12.70
2022-11-03T00:23:03.559Z,12.57
2022-11-03T00:26:08.944Z,12.64
2022-11-03T00:29:13.627Z,12.61
2022-11-03T00:32:16.300Z,12.60
2022-11-03T00:35:18.947Z,12.47
2022-11-03T00:38:21.178Z,12.55
2022-11-03T00:41:24.864Z,12.51
2022-11-03T00:44:27.489Z,12.36
2022-11-03T00:47:30.028Z,12.47
2022-11-03T00:50:36.152Z,12.41
2022-11-03T00:53:39.620Z,12.40
2022-11-03T00:56:42.745Z,12.39
2022-11-03T00:59:46.716Z,12.35
2022-11-03T01:02:48.975Z,12.34
2022-11-03T01:06:09.902Z,12.30
2022-11-03T01:09:12.163Z,12.29
2022-11-03T01:12:19.146Z,12.18
2022-11-03T01:15:21.390Z,12.26
2022-11-03T01:18:23.988Z,12.23
2022-11-03T01:21:26.311Z,12.22
2022-11-03T01:24:28.818Z,12.22
2022-11-03T01:27:31.094Z,12.19
2022-11-03T01:30:34.074Z,12.18
2022-11-03T01:33:36.381Z,12.17
2022-11-03T01:36:38.849Z,12.16
2022-11-03T01:39:41.133Z,12.16
2022-11-03T01:42:43.651Z,12.14
2022-11-03T01:45:47.606Z,12.03
2022-11-03T01:49:01.819Z,12.00
2022-11-03T01:52:11.416Z,12.11
2022-11-03T01:55:18.828Z,12.00
2022-11-03T01:58:29.018Z,12.10
2022-11-03T02:01:32.150Z,12.09
2022-11-03T02:04:35.651Z,12.08
2022-11-03T02:07:54.761Z,12.05
2022-11-03T02:10:58.102Z,12.05
2022-11-03T02:14:00.696Z,12.02
2022-11-03T02:17:08.600Z,12.04
2022-11-03T02:20:17.967Z,12.02
2022-11-03T02:23:26.373Z,12.01
2022-11-03T02:26:29.187Z,11.98
2022-11-03T02:29:31.470Z,11.90
2022-11-03T02:32:45.834Z,11.82
2022-11-03T02:35:53.874Z,11.88
2022-11-03T02:39:14.626Z,11.74
2022-11-03T02:42:19.962Z,11.73
2022-11-03T02:45:26.997Z,11.75
2022-11-03T02:48:29.501Z,11.67
2022-11-03T02:51:32.039Z,11.67
2022-11-03T02:54:44.987Z,11.61
2022-11-03T02:57:58.694Z,11.58
2022-11-03T03:01:15.281Z,11.44
2022-11-03T03:04:26.954Z,11.49
2022-11-03T03:07:34.864Z,11.51
2022-11-03T03:10:46.730Z,11.47
2022-11-03T03:13:49.879Z,11.45
2022-11-03T03:17:00.960Z,11.41
2022-11-03T03:20:14.487Z,11.33
2022-11-03T03:23:21.580Z,11.39
2022-11-03T03:26:34.473Z,11.38
2022-11-03T03:29:43.517Z,11.40
2022-11-03T03:32:51.285Z,11.26
2022-11-03T03:35:54.411Z,11.25
2022-11-03T03:39:02.147Z,11.32
2022-11-03T03:42:08.174Z,11.20
2022-11-03T03:45:12.101Z,11.29
2022-11-03T03:48:14.635Z,11.15
2022-11-03T03:51:22.784Z,11.19
2022-11-03T03:54:25.266Z,10.99
2022-11-03T03:57:30.386Z,11.11
2022-11-03T04:00:33.591Z,10.96
2022-11-03T04:03:36.142Z,10.92
2022-11-03T04:06:38.384Z,10.96
2022-11-03T04:09:40.965Z,10.92
2022-11-03T04:13:03.244Z,10.87
2022-11-03T04:16:27.725Z,10.70
2022-11-03T04:19:48.893Z,10.79
2022-11-03T04:22:51.396Z,10.75
2022-11-03T04:25:56.283Z,10.63
2022-11-03T04:29:00.550Z,10.59
2022-11-03T04:32:08.849Z,10.66
2022-11-03T04:35:23.997Z,10.47
2022-11-03T04:38:27.993Z,10.52
2022-11-03T04:41:33.735Z,10.59
2022-11-03T04:44:36.042Z,10.57
2022-11-03T04:47:38.611Z,10.56
2022-11-03T04:50:46.563Z,10.45
2022-11-03T04:54:19.616Z,10.62
2022-11-03T04:57:21.858Z,10.60
2022-11-03T05:00:24.386Z,10.49
2022-11-03T05:03:38.153Z,10.50
2022-11-03T05:06:42.495Z,10.57
2022-11-03T05:09:44.914Z,10.51
2022-11-03T05:12:49.054Z,10.42
2022-11-03T05:16:11.543Z,10.05
2022-11-03T05:19:36.584Z,10.51
2022-11-03T05:22:39.019Z,10.49
2022-11-03T05:25:47.687Z,10.45
2022-11-03T05:28:59.754Z,10.47
2022-11-03T05:32:02.756Z,10.41
2022-11-03T05:35:19.523Z,10.33
2022-11-03T05:38:23.805Z,10.40
2022-11-03T05:41:30.568Z,10.44
2022-11-03T05:44:37.045Z,10.46
2022-11-03T05:47:40.334Z,10.45
2022-11-03T05:50:43.056Z,10.47
2022-11-03T05:53:46.680Z,10.42
2022-11-03T05:56:49.857Z,10.43
2022-11-03T05:59:52.577Z,10.46
2022-11-03T06:02:55.973Z,10.28
2022-11-03T06:06:00.278Z,10.51
2022-11-03T06:09:03.330Z,10.57
2022-11-03T06:12:07.307Z,10.60
2022-11-03T06:15:24.507Z,10.54
2022-11-03T06:18:33.000Z,10.57
2022-11-03T06:21:35.336Z,10.63
2022-11-03T06:24:38.627Z,10.81
2022-11-03T06:27:40.918Z,10.69
2022-11-03T06:30:43.908Z,10.82
2022-11-03T06:33:46.265Z,10.86
2022-11-03T06:36:48.850Z,11.07
2022-11-03T06:39:53.993Z,11.16
2022-11-03T06:42:58.556Z,11.23
2022-11-03T06:46:08.962Z,11.22
2022-11-03T06:49:35.358Z,11.38
2022-11-03T06:52:44.656Z,11.47
2022-11-03T06:55:48.783Z,11.47
2022-11-03T06:58:54.366Z,11.71
2022-11-03T07:01:57.036Z,11.83
2022-11-03T07:05:00.172Z,12.00
2022-11-03T07:08:13.293Z,12.02
2022-11-03T07:11:45.680Z,12.31
2022-11-03T07:14:48.198Z,12.48
2022-11-03T07:17:51.062Z,12.43
2022-11-03T07:20:55.928Z,12.59
2022-11-03T07:24:00.987Z,12.62
2022-11-03T07:27:29.005Z,12.76
2022-11-03T07:30:35.006Z,12.82
2022-11-03T07:33:39.923Z,12.86
2022-11-03T07:36:44.672Z,12.80
2022-11-03T07:39:54.061Z,12.80
2022-11-03T07:42:59.205Z,12.82
2022-11-03T07:46:03.826Z,12.82
2022-11-03T07:49:21.457Z,12.81
2022-11-03T07:52:28.090Z,12.92
2022-11-03T07:55:30.367Z,12.92
2022-11-03T07:58:38.663Z,12.90
2022-11-03T08:02:02.965Z,12.83
2022-11-03T08:05:07.655Z,12.94
2022-11-03T08:08:10.127Z,13.02
2022-11-03T08:11:20.167Z,12.94
2022-11-03T08:14:40.777Z,12.99
2022-11-03T08:17:43.298Z,12.94
2022-11-03T08:20:45.583Z,12.95
2022-11-03T08:23:52.213Z,12.99
2022-11-03T08:26:54.391Z,13.02
2022-11-03T08:29:56.907Z,12.88
2022-11-03T08:32:59.115Z,12.87
2022-11-03T08:39:44.246Z,12.94
2022-11-03T08:43:42.899Z,12.93
2022-11-03T08:48:07.489Z,12.84
2022-11-03T08:51:14.669Z,12.47
2022-11-03T08:54:20.789Z,12.75
2022-11-03T08:57:24.043Z,12.91
2022-11-03T09:00:26.398Z,12.83
2022-11-03T09:03:28.922Z,12.94
2022-11-03T09:06:33.760Z,12.86
2022-11-03T09:13:10.242Z,12.75
2022-11-03T09:16:13.116Z,12.81
2022-11-03T09:19:19.026Z,12.84
2022-11-03T09:22:22.767Z,12.75
2022-11-03T09:25:25.334Z,12.76
2022-11-03T09:28:27.990Z,13.01
2022-11-03T09:31:30.635Z,13.05
2022-11-03T09:34:33.353Z,13.10
2022-11-03T09:37:36.151Z,12.99
2022-11-03T09:40:39.113Z,13.12
2022-11-03T09:43:41.658Z,13.13
2022-11-03T09:46:44.230Z,13.13
2022-11-03T09:49:46.688Z,13.02
2022-11-03T09:53:03.481Z,13.03
2022-11-03T09:56:21.248Z,13.14
2022-11-03T09:59:27.677Z,13.11
2022-11-03T10:02:32.919Z,13.01
2022-11-03T10:05:39.217Z,13.08
2022-11-03T10:08:53.830Z,13.00
2022-11-03T10:12:03.767Z,13.05
2022-11-03T10:15:13.029Z,13.04
2022-11-03T10:18:15.612Z,13.07
2022-11-03T10:21:33.696Z,13.01
2022-11-03T10:24:36.581Z,13.08
2022-11-03T10:27:38.864Z,12.95
2022-11-03T10:31:12.710Z,13.06
2022-11-03T10:34:42.668Z,12.94
2022-11-03T10:37:45.171Z,13.02
2022-11-03T10:40:48.490Z,12.97
2022-11-03T10:44:02.251Z,12.95
2022-11-03T10:47:07.022Z,13.00
2022-11-03T10:50:24.650Z,13.02
2022-11-03T10:56:35.404Z,13.00
2022-11-03T10:59:38.593Z,12.77
2022-11-03T11:02:42.954Z,12.98
2022-11-03T11:05:47.311Z,12.86
2022-11-03T11:08:59.656Z,12.95
2022-11-03T11:12:25.297Z,12.94
2022-11-03T11:15:42.180Z,12.91
2022-11-03T11:18:44.332Z,12.89
2022-11-03T11:21:47.760Z,12.89
2022-11-03T11:24:49.919Z,12.88
2022-11-03T11:27:58.290Z,12.88
2022-11-03T11:31:01.004Z,12.80
2022-11-03T11:34:09.666Z,12.83
2022-11-03T11:37:11.862Z,12.88
2022-11-03T11:40:34.809Z,12.89
2022-11-03T11:43:37.259Z,12.88
2022-11-03T11:46:41.235Z,12.79
2022-11-03T11:49:43.542Z,12.90
2022-11-03T11:53:01.482Z,12.82
2022-11-03T11:56:04.152Z,12.93
2022-11-03T11:59:20.176Z,12.97
2022-11-03T12:02:31.164Z,12.87
2022-11-03T12:05:36.084Z,12.99
2022-11-03T12:08:38.735Z,12.99
2022-11-03T12:11:56.435Z,13.01
2022-11-03T12:14:59.086Z,13.04
2022-11-03T12:18:43.536Z,13.06
2022-11-03T12:21:50.053Z,13.03
2022-11-03T12:24:54.545Z,13.05
2022-11-03T12:27:56.779Z,13.09
2022-11-03T12:34:07.017Z,13.02
2022-11-03T12:37:09.591Z,13.06
2022-11-03T12:40:14.079Z,13.08
2022-11-03T12:43:16.818Z,12.85
2022-11-03T12:46:20.809Z,13.10
2022-11-03T12:49:23.458Z,13.04
2022-11-03T12:52:25.784Z,13.08
2022-11-03T12:58:35.835Z,12.95
2022-11-03T13:01:40.786Z,13.06
2022-11-03T13:04:43.059Z,13.02
2022-11-03T13:07:45.565Z,13.03
2022-11-03T13:10:50.710Z,13.02
2022-11-03T13:13:57.318Z,13.04
2022-11-03T13:16:59.674Z,12.88
2022-11-03T13:20:03.499Z,12.98
2022-11-03T13:23:06.531Z,12.96
2022-11-03T13:26:09.489Z,12.93
2022-11-03T13:29:11.902Z,12.78
2022-11-03T13:32:14.429Z,12.90
2022-11-03T13:35:17.146Z,12.72
2022-11-03T13:38:19.851Z,12.80
2022-11-03T13:41:23.821Z,12.74
2022-11-03T13:44:26.483Z,12.64
2022-11-03T13:47:41.993Z,12.58
2022-11-03T13:50:53.196Z,12.51
2022-11-03T14:00:40.845Z,12.65
2022-11-03T14:07:06.649Z,12.65
2022-11-03T14:10:09.622Z,12.64
2022-11-03T14:13:12.200Z,12.41
2022-11-03T14:16:14.819Z,12.40
2022-11-03T14:19:17.112Z,12.57
2022-11-03T14:22:23.987Z,12.56
2022-11-03T14:25:26.283Z,12.55
2022-11-03T14:28:28.826Z,12.39
2022-11-03T14:31:36.798Z,12.44
2022-11-03T14:34:39.596Z,12.42
2022-11-03T14:37:42.035Z,12.51
2022-11-03T14:41:03.001Z,12.37
2022-11-03T14:44:06.022Z,12.47
2022-11-03T14:47:15.330Z,12.46
2022-11-03T14:50:17.532Z,12.41
2022-11-03T14:53:20.164Z,12.39
2022-11-03T14:56:22.527Z,12.30
2022-11-03T14:59:25.996Z,12.34
2022-11-03T15:02:28.338Z,12.19
2022-11-03T15:05:46.600Z,12.28
2022-11-03T15:08:53.419Z,12.12
2022-11-03T15:11:58.839Z,12.13
2022-11-03T15:15:01.093Z,12.08
2022-11-03T15:18:04.211Z,11.97
2022-11-03T15:21:06.616Z,11.75
2022-11-03T15:27:31.576Z,11.54
2022-11-03T15:30:34.141Z,11.49
2022-11-03T15:33:36.363Z,11.39
2022-11-03T15:36:38.940Z,11.34
2022-11-03T15:39:41.990Z,11.23
2022-11-03T15:42:44.548Z,11.21
2022-11-03T15:45:46.879Z,11.08
2022-11-03T15:48:49.513Z,11.16
2022-11-03T15:51:51.947Z,11.17
2022-11-03T15:54:54.605Z,11.03
2022-11-03T15:57:56.936Z,10.98
2022-11-03T16:01:03.422Z,11.06
2022-11-03T16:04:06.037Z,10.97
2022-11-03T16:07:08.971Z,10.96
2022-11-03T16:10:12.103Z,10.81
2022-11-03T16:13:14.331Z,10.85
2022-11-03T16:16:17.004Z,10.78
2022-11-03T16:19:22.854Z,10.78
2022-11-03T16:22:27.405Z,10.77
2022-11-03T16:25:29.734Z,10.64
2022-11-03T16:28:35.104Z,10.65
2022-11-03T16:31:37.377Z,10.73
2022-11-03T16:34:43.000Z,10.68
2022-11-03T16:37:47.931Z,10.65
2022-11-03T16:40:50.451Z,10.62
2022-11-03T16:43:52.775Z,10.68
2022-11-03T16:46:56.863Z,10.77
2022-11-03T16:50:04.892Z,10.68
2022-11-03T16:53:07.692Z,10.80
2022-11-03T16:56:10.157Z,10.81
2022-11-03T16:59:15.429Z,10.86
2022-11-03T17:02:19.343Z,10.87
2022-11-03T17:05:25.020Z,10.86
2022-11-03T17:11:50.664Z,10.91
2022-11-03T17:14:55.698Z,10.98
2022-11-03T17:18:00.065Z,10.94
2022-11-03T17:21:02.497Z,11.00
2022-11-03T17:24:11.388Z,11.07
2022-11-03T17:27:25.424Z,10.99
2022-11-03T17:30:34.205Z,11.12
2022-11-03T17:33:38.000Z,11.16
2022-11-03T17:36:41.054Z,11.09
2022-11-03T17:39:43.590Z,11.19
2022-11-03T17:42:46.403Z,11.15
2022-11-03T17:45:53.760Z,11.19
2022-11-03T17:48:56.399Z,11.33
2022-11-03T17:51:59.224Z,11.27
2022-11-03T17:55:05.056Z,11.32
2022-11-03T17:58:07.299Z,11.27
2022-11-03T18:01:10.618Z,11.39
2022-11-03T18:07:27.003Z,11.35
2022-11-03T18:10:33.477Z,11.35
2022-11-03T18:13:36.963Z,11.47
2022-11-03T18:16:40.627Z,11.48
2022-11-03T18:19:42.958Z,11.39
2022-11-03T18:22:45.649Z,11.48
2022-11-03T18:25:48.960Z,11.53
2022-11-03T18:28:52.350Z,11.53
2022-11-03T18:31:54.797Z,11.56
2022-11-03T18:34:57.414Z,11.47
2022-11-03T18:38:00.031Z,11.53
2022-11-03T18:41:22.951Z,11.61
2022-11-03T18:44:30.683Z,11.55
2022-11-03T18:47:33.239Z,11.65
2022-11-03T18:50:35.788Z,11.58
2022-11-03T18:53:38.562Z,11.68
2022-11-03T18:56:41.064Z,11.68
2022-11-03T18:59:44.773Z,11.58
2022-11-03T19:02:48.962Z,11.60
2022-11-03T19:05:52.935Z,11.72
2022-11-03T19:08:59.997Z,11.62
2022-11-03T19:12:02.755Z,11.71
2022-11-03T19:15:06.752Z,11.73
2022-11-03T19:18:13.888Z,11.71
2022-11-03T19:21:23.868Z,11.73
2022-11-03T19:24:26.492Z,11.74
2022-11-03T19:27:31.866Z,11.74
2022-11-03T19:30:34.578Z,11.76
2022-11-03T19:33:38.163Z,11.67
2022-11-03T19:36:40.760Z,11.79
2022-11-03T19:39:43.131Z,11.82
2022-11-03T19:42:48.551Z,11.82
2022-11-03T19:45:50.900Z,11.82
2022-11-03T19:48:54.210Z,11.78
2022-11-03T19:51:57.693Z,11.78
2022-11-03T19:55:08.058Z,11.76
2022-11-03T19:58:17.906Z,11.84
2022-11-03T20:01:20.630Z,11.84
2022-11-03T20:04:23.287Z,11.76
2022-11-03T20:07:31.610Z,11.87
2022-11-03T20:10:36.135Z,11.78
2022-11-03T20:13:43.140Z,11.87
2022-11-03T20:16:45.694Z,11.78
2022-11-03T20:19:47.955Z,11.77
2022-11-03T20:22:55.526Z,11.76
2022-11-03T20:26:03.597Z,11.87
2022-11-03T20:29:12.951Z,11.83
2022-11-03T20:32:15.569Z,11.68
2022-11-03T20:35:26.276Z,11.83
2022-11-03T20:38:29.188Z,11.72
2022-11-03T20:41:32.720Z,11.84
2022-11-03T20:44:35.078Z,11.83
2022-11-03T20:47:37.638Z,11.79
2022-11-03T20:50:40.333Z,11.83
2022-11-03T20:53:43.066Z,11.42
2022-11-03T20:56:46.535Z,11.73
2022-11-03T20:59:49.100Z,11.83
2022-11-03T21:02:52.142Z,11.71
2022-11-03T21:05:54.882Z,11.83
2022-11-03T21:08:57.588Z,11.85
2022-11-03T21:12:00.129Z,11.86
2022-11-03T21:15:22.854Z,11.76
2022-11-03T21:18:46.140Z,11.74
2022-11-03T21:21:48.523Z,11.87
2022-11-03T21:24:51.359Z,11.85
2022-11-03T21:27:54.332Z,11.81
2022-11-03T21:30:57.593Z,11.82
2022-11-03T21:33:59.900Z,11.80
2022-11-03T21:37:02.444Z,11.73
2022-11-03T21:40:07.158Z,11.74
2022-11-03T21:43:30.176Z,11.85
2022-11-03T21:46:32.398Z,11.86
2022-11-03T21:49:43.718Z,11.87
2022-11-03T21:52:46.162Z,11.86
2022-11-03T21:55:49.564Z,11.54
2022-11-03T21:58:51.858Z,11.82
2022-11-03T22:01:55.244Z,11.88
2022-11-03T22:04:58.028Z,11.83
2022-11-03T22:08:00.333Z,11.75
2022-11-03T22:11:22.389Z,11.83
2022-11-03T22:14:26.627Z,11.86
2022-11-03T22:17:29.250Z,11.87
2022-11-03T22:20:50.320Z,11.88
2022-11-03T22:24:11.622Z,11.82
2022-11-03T22:27:14.565Z,11.83
2022-11-03T22:30:35.419Z,11.77
2022-11-03T22:33:57.760Z,11.78
2022-11-03T22:37:00.258Z,11.79
2022-11-03T22:40:21.020Z,11.70
2022-11-03T22:43:43.528Z,11.73
2022-11-03T22:46:45.786Z,11.78
2022-11-03T22:49:48.306Z,11.77
2022-11-03T22:52:50.598Z,11.72
2022-11-03T22:55:53.476Z,11.64
2022-11-03T22:58:55.986Z,11.72
2022-11-03T23:01:58.572Z,11.70
2022-11-03T23:05:00.948Z,11.71
2022-11-03T23:08:03.658Z,11.71
2022-11-03T23:11:16.147Z,11.71
2022-11-03T23:14:19.138Z,11.61
2022-11-03T23:17:41.331Z,11.61
2022-11-03T23:21:03.425Z,11.70
2022-11-03T23:24:24.667Z,11.71
2022-11-03T23:27:28.136Z,11.59
2022-11-03T23:30:30.351Z,11.67
2022-11-03T23:33:33.631Z,11.54
2022-11-03T23:36:36.336Z,11.65
2022-11-03T23:39:38.842Z,11.61
2022-11-03T23:42:41.143Z,11.58
2022-11-03T23:46:02.725Z,11.53
2022-11-03T23:49:05.750Z,11.54
2022-11-03T23:52:08.265Z,11.49
2022-11-03T23:55:10.799Z,11.52
2022-11-03T23:58:19.252Z,11.51
